sensor_id;sensor_type;location;lat;lon;timestamp;pressure;altitude;pressure_sealevel;temperature;humidity
48882;BME280;57063;51.406;-2.402;2023-05-22T00:02:15;101081.81;;;10.73;75.51
48882;BME280;57063;51.406;-2.402;2023-05-22T00:04:41;101076.22;;;10.82;75.98
48882;BME280;57063;51.406;-2.402;2023-05-22T00:07:06;101082.06;;;10.85;75.04
48882;BME280;57063;51.406;-2.402;2023-05-22T00:09:31;101079.63;;;10.82;74.44
48882;BME280;57063;51.406;-2.402;2023-05-22T00:11:56;101075.63;;;10.94;72.56
48882;BME280;57063;51.406;-2.402;2023-05-22T00:14:22;101079.72;;;10.81;73.97
48882;BME280;57063;51.406;-2.402;2023-05-22T00:16:47;101088.81;;;10.70;73.56
48882;BME280;57063;51.406;-2.402;2023-05-22T00:19:12;101079.00;;;10.77;73.49
48882;BME280;57063;51.406;-2.402;2023-05-22T00:21:40;101086.63;;;10.80;71.39
48882;BME280;57063;51.406;-2.402;2023-05-22T00:24:06;101088.75;;;10.89;69.13
48882;BME280;57063;51.406;-2.402;2023-05-22T00:26:32;101089.13;;;10.99;68.99
48882;BME280;57063;51.406;-2.402;2023-05-22T00:28:57;101089.00;;;11.02;67.54
48882;BME280;57063;51.406;-2.402;2023-05-22T00:31:22;101093.25;;;11.03;69.03
48882;BME280;57063;51.406;-2.402;2023-05-22T00:33:47;101084.72;;;10.84;70.30
48882;BME280;57063;51.406;-2.402;2023-05-22T00:36:14;101080.94;;;10.91;69.97
48882;BME280;57063;51.406;-2.402;2023-05-22T00:38:39;101087.25;;;10.85;69.98
48882;BME280;57063;51.406;-2.402;2023-05-22T00:41:05;101087.25;;;10.85;69.53
48882;BME280;57063;51.406;-2.402;2023-05-22T00:43:31;101087.47;;;10.81;69.83
48882;BME280;57063;51.406;-2.402;2023-05-22T00:45:56;101076.38;;;10.79;70.80
48882;BME280;57063;51.406;-2.402;2023-05-22T00:48:22;101078.75;;;10.64;70.12
48882;BME280;57063;51.406;-2.402;2023-05-22T00:50:51;101074.13;;;10.54;72.49
48882;BME280;57063;51.406;-2.402;2023-05-22T00:53:18;101081.72;;;10.38;72.78
48882;BME280;57063;51.406;-2.402;2023-05-22T00:55:44;101079.91;;;10.40;72.69
48882;BME280;57063;51.406;-2.402;2023-05-22T00:58:09;101079.28;;;10.35;72.05
48882;BME280;57063;51.406;-2.402;2023-05-22T01:00:37;101074.91;;;10.37;72.90
48882;BME280;57063;51.406;-2.402;2023-05-22T01:03:06;101076.50;;;10.39;72.86
48882;BME280;57063;51.406;-2.402;2023-05-22T01:05:32;101070.56;;;10.37;72.98
48882;BME280;57063;51.406;-2.402;2023-05-22T01:07:58;101072.38;;;10.35;72.67
48882;BME280;57063;51.406;-2.402;2023-05-22T01:10:24;101075.94;;;10.33;72.62
48882;BME280;57063;51.406;-2.402;2023-05-22T01:15:44;101074.16;;;10.14;73.44
48882;BME280;57063;51.406;-2.402;2023-05-22T01:31:05;101059.13;;;10.05;73.23
48882;BME280;57063;51.406;-2.402;2023-05-22T01:33:35;101056.41;;;10.08;74.75
48882;BME280;57063;51.406;-2.402;2023-05-22T01:36:03;101054.94;;;10.02;74.30
48882;BME280;57063;51.406;-2.402;2023-05-22T01:38:31;101046.84;;;10.10;73.54
48882;BME280;57063;51.406;-2.402;2023-05-22T01:40:58;101046.22;;;10.05;74.07
48882;BME280;57063;51.406;-2.402;2023-05-22T01:43:23;101043.66;;;10.05;75.14
48882;BME280;57063;51.406;-2.402;2023-05-22T01:45:48;101046.50;;;9.99;75.89
48882;BME280;57063;51.406;-2.402;2023-05-22T01:48:14;101046.97;;;10.07;76.38
48882;BME280;57063;51.406;-2.402;2023-05-22T01:50:40;101047.38;;;10.17;76.72
48882;BME280;57063;51.406;-2.402;2023-05-22T01:56:13;101045.31;;;10.06;78.71
48882;BME280;57063;51.406;-2.402;2023-05-22T01:58:42;101053.81;;;10.08;78.99
48882;BME280;57063;51.406;-2.402;2023-05-22T02:01:09;101050.47;;;10.06;79.28
48882;BME280;57063;51.406;-2.402;2023-05-22T02:03:35;101057.28;;;10.07;77.13
48882;BME280;57063;51.406;-2.402;2023-05-22T02:06:04;101056.47;;;10.06;78.46
48882;BME280;57063;51.406;-2.402;2023-05-22T02:08:30;101057.72;;;9.98;77.58
48882;BME280;57063;51.406;-2.402;2023-05-22T02:10:55;101060.00;;;10.04;77.46
48882;BME280;57063;51.406;-2.402;2023-05-22T02:13:22;101060.16;;;10.20;75.26
48882;BME280;57063;51.406;-2.402;2023-05-22T02:15:47;101060.53;;;10.12;75.03
48882;BME280;57063;51.406;-2.402;2023-05-22T02:18:13;101066.94;;;10.22;74.56
48882;BME280;57063;51.406;-2.402;2023-05-22T02:20:38;101055.06;;;10.18;74.50
48882;BME280;57063;51.406;-2.402;2023-05-22T02:23:03;101066.38;;;10.16;73.65
48882;BME280;57063;51.406;-2.402;2023-05-22T02:25:29;101070.84;;;10.12;75.49
48882;BME280;57063;51.406;-2.402;2023-05-22T02:27:54;101061.72;;;10.05;75.25
48882;BME280;57063;51.406;-2.402;2023-05-22T02:30:19;101060.78;;;10.06;74.04
48882;BME280;57063;51.406;-2.402;2023-05-22T02:32:44;101053.66;;;10.11;73.31
48882;BME280;57063;51.406;-2.402;2023-05-22T02:35:10;101061.72;;;10.05;74.33
48882;BME280;57063;51.406;-2.402;2023-05-22T02:37:35;101056.03;;;9.97;75.12
48882;BME280;57063;51.406;-2.402;2023-05-22T02:40:00;101061.50;;;9.91;75.21
48882;BME280;57063;51.406;-2.402;2023-05-22T02:42:25;101058.91;;;9.91;74.85
48882;BME280;57063;51.406;-2.402;2023-05-22T02:44:51;101062.38;;;9.90;74.41
48882;BME280;57063;51.406;-2.402;2023-05-22T02:47:16;101051.56;;;9.81;74.25
48882;BME280;57063;51.406;-2.402;2023-05-22T02:49:41;101063.00;;;9.76;74.60
48882;BME280;57063;51.406;-2.402;2023-05-22T02:52:07;101063.53;;;9.82;73.79
48882;BME280;57063;51.406;-2.402;2023-05-22T02:54:32;101053.38;;;9.79;74.46
48882;BME280;57063;51.406;-2.402;2023-05-22T02:56:57;101054.50;;;9.74;74.55
48882;BME280;57063;51.406;-2.402;2023-05-22T02:59:22;101049.34;;;9.74;74.67
48882;BME280;57063;51.406;-2.402;2023-05-22T03:01:48;101054.56;;;9.72;75.66
48882;BME280;57063;51.406;-2.402;2023-05-22T03:04:13;101054.06;;;9.64;75.05
48882;BME280;57063;51.406;-2.402;2023-05-22T03:06:39;101054.94;;;9.63;75.12
48882;BME280;57063;51.406;-2.402;2023-05-22T03:09:04;101057.47;;;9.64;74.84
48882;BME280;57063;51.406;-2.402;2023-05-22T03:11:32;101059.34;;;9.61;73.98
48882;BME280;57063;51.406;-2.402;2023-05-22T03:13:58;101047.75;;;9.51;75.17
48882;BME280;57063;51.406;-2.402;2023-05-22T03:16:23;101057.09;;;9.53;75.24
48882;BME280;57063;51.406;-2.402;2023-05-22T03:18:49;101055.75;;;9.45;76.03
48882;BME280;57063;51.406;-2.402;2023-05-22T03:21:14;101054.00;;;9.45;75.63
48882;BME280;57063;51.406;-2.402;2023-05-22T03:23:39;101051.09;;;9.53;74.43
48882;BME280;57063;51.406;-2.402;2023-05-22T03:26:04;101060.56;;;9.52;73.89
48882;BME280;57063;51.406;-2.402;2023-05-22T03:28:30;101053.88;;;9.48;73.99
48882;BME280;57063;51.406;-2.402;2023-05-22T03:30:55;101059.75;;;9.52;73.99
48882;BME280;57063;51.406;-2.402;2023-05-22T03:33:20;101054.59;;;9.52;73.95
48882;BME280;57063;51.406;-2.402;2023-05-22T03:35:46;101055.56;;;9.49;75.03
48882;BME280;57063;51.406;-2.402;2023-05-22T03:38:11;101063.34;;;9.48;74.86
48882;BME280;57063;51.406;-2.402;2023-05-22T03:40:36;101056.44;;;9.48;74.63
48882;BME280;57063;51.406;-2.402;2023-05-22T03:43:01;101056.53;;;9.47;73.74
48882;BME280;57063;51.406;-2.402;2023-05-22T03:45:26;101055.81;;;9.43;75.57
48882;BME280;57063;51.406;-2.402;2023-05-22T03:47:52;101062.53;;;9.47;74.69
48882;BME280;57063;51.406;-2.402;2023-05-22T03:50:17;101055.91;;;9.41;75.11
48882;BME280;57063;51.406;-2.402;2023-05-22T03:52:42;101060.28;;;9.39;76.14
48882;BME280;57063;51.406;-2.402;2023-05-22T03:55:07;101056.66;;;9.43;74.76
48882;BME280;57063;51.406;-2.402;2023-05-22T03:57:33;101046.28;;;9.45;74.67
48882;BME280;57063;51.406;-2.402;2023-05-22T03:59:58;101047.13;;;9.46;75.61
48882;BME280;57063;51.406;-2.402;2023-05-22T04:02:30;101054.75;;;9.49;75.13
48882;BME280;57063;51.406;-2.402;2023-05-22T04:04:55;101047.88;;;9.48;76.16
48882;BME280;57063;51.406;-2.402;2023-05-22T04:07:20;101042.47;;;9.54;75.74
48882;BME280;57063;51.406;-2.402;2023-05-22T04:09:46;101044.28;;;9.52;75.99
48882;BME280;57063;51.406;-2.402;2023-05-22T04:12:11;101044.16;;;9.55;76.81
48882;BME280;57063;51.406;-2.402;2023-05-22T04:14:36;101047.50;;;9.57;76.24
48882;BME280;57063;51.406;-2.402;2023-05-22T04:17:01;101052.25;;;9.66;76.54
48882;BME280;57063;51.406;-2.402;2023-05-22T04:19:27;101053.22;;;9.63;77.27
48882;BME280;57063;51.406;-2.402;2023-05-22T04:21:53;101054.91;;;9.64;76.92
48882;BME280;57063;51.406;-2.402;2023-05-22T04:24:19;101045.31;;;9.68;76.54
48882;BME280;57063;51.406;-2.402;2023-05-22T04:26:46;101043.34;;;9.73;76.80
48882;BME280;57063;51.406;-2.402;2023-05-22T04:29:12;101053.59;;;9.75;76.45
48882;BME280;57063;51.406;-2.402;2023-05-22T04:31:38;101049.78;;;9.83;76.78
48882;BME280;57063;51.406;-2.402;2023-05-22T04:34:03;101045.50;;;9.82;75.77
48882;BME280;57063;51.406;-2.402;2023-05-22T04:36:29;101046.66;;;9.96;75.18
48882;BME280;57063;51.406;-2.402;2023-05-22T04:38:55;101038.19;;;9.92;75.79
48882;BME280;57063;51.406;-2.402;2023-05-22T04:41:20;101040.84;;;9.91;76.08
48882;BME280;57063;51.406;-2.402;2023-05-22T04:43:51;101037.44;;;9.90;76.27
48882;BME280;57063;51.406;-2.402;2023-05-22T04:46:17;101049.22;;;9.96;76.11
48882;BME280;57063;51.406;-2.402;2023-05-22T04:48:43;101052.47;;;9.99;75.41
48882;BME280;57063;51.406;-2.402;2023-05-22T04:51:08;101062.16;;;9.94;75.59
48882;BME280;57063;51.406;-2.402;2023-05-22T04:53:34;101057.00;;;9.94;76.14
48882;BME280;57063;51.406;-2.402;2023-05-22T04:55:59;101060.72;;;9.89;76.41
48882;BME280;57063;51.406;-2.402;2023-05-22T04:58:25;101060.91;;;9.84;76.91
48882;BME280;57063;51.406;-2.402;2023-05-22T05:00:53;101064.31;;;9.84;76.52
48882;BME280;57063;51.406;-2.402;2023-05-22T05:03:19;101069.56;;;9.83;76.96
48882;BME280;57063;51.406;-2.402;2023-05-22T05:05:44;101073.84;;;9.82;76.71
48882;BME280;57063;51.406;-2.402;2023-05-22T05:08:11;101070.59;;;9.79;76.79
48882;BME280;57063;51.406;-2.402;2023-05-22T05:10:36;101074.00;;;9.79;78.19
48882;BME280;57063;51.406;-2.402;2023-05-22T05:13:02;101068.16;;;9.76;77.79
48882;BME280;57063;51.406;-2.402;2023-05-22T05:15:27;101074.84;;;9.80;77.79
48882;BME280;57063;51.406;-2.402;2023-05-22T05:17:53;101070.41;;;9.83;77.22
48882;BME280;57063;51.406;-2.402;2023-05-22T05:20:18;101068.59;;;9.85;78.21
48882;BME280;57063;51.406;-2.402;2023-05-22T05:22:44;101068.31;;;9.92;78.47
48882;BME280;57063;51.406;-2.402;2023-05-22T05:25:10;101074.72;;;10.02;77.18
48882;BME280;57063;51.406;-2.402;2023-05-22T05:27:35;101066.66;;;10.10;76.46
48882;BME280;57063;51.406;-2.402;2023-05-22T05:30:00;101062.81;;;10.18;76.17
48882;BME280;57063;51.406;-2.402;2023-05-22T05:32:26;101073.22;;;10.36;74.83
48882;BME280;57063;51.406;-2.402;2023-05-22T05:34:51;101071.25;;;10.41;75.53
48882;BME280;57063;51.406;-2.402;2023-05-22T05:37:17;101077.34;;;10.40;74.64
48882;BME280;57063;51.406;-2.402;2023-05-22T05:39:42;101077.19;;;10.43;75.26
48882;BME280;57063;51.406;-2.402;2023-05-22T05:42:07;101076.78;;;10.33;76.03
48882;BME280;57063;51.406;-2.402;2023-05-22T05:44:32;101081.09;;;10.33;75.53
48882;BME280;57063;51.406;-2.402;2023-05-22T05:46:58;101077.81;;;10.48;75.92
48882;BME280;57063;51.406;-2.402;2023-05-22T05:49:23;101077.53;;;10.54;75.39
48882;BME280;57063;51.406;-2.402;2023-05-22T05:51:48;101081.56;;;10.60;74.33
48882;BME280;57063;51.406;-2.402;2023-05-22T05:54:13;101084.47;;;10.71;73.78
48882;BME280;57063;51.406;-2.402;2023-05-22T05:56:39;101084.88;;;10.81;74.71
48882;BME280;57063;51.406;-2.402;2023-05-22T05:59:04;101085.19;;;10.92;73.95
48882;BME280;57063;51.406;-2.402;2023-05-22T06:01:32;101089.63;;;11.07;72.36
48882;BME280;57063;51.406;-2.402;2023-05-22T06:03:57;101083.53;;;11.26;71.23
48882;BME280;57063;51.406;-2.402;2023-05-22T06:06:26;101092.03;;;11.45;70.97
48882;BME280;57063;51.406;-2.402;2023-05-22T06:08:53;101088.69;;;11.43;70.04
48882;BME280;57063;51.406;-2.402;2023-05-22T06:11:19;101091.84;;;11.48;69.56
48882;BME280;57063;51.406;-2.402;2023-05-22T06:13:44;101099.63;;;11.48;68.66
48882;BME280;57063;51.406;-2.402;2023-05-22T06:16:09;101106.91;;;11.57;68.29
48882;BME280;57063;51.406;-2.402;2023-05-22T06:18:35;101099.34;;;11.37;68.47
48882;BME280;57063;51.406;-2.402;2023-05-22T06:21:01;101102.19;;;11.48;68.53
48882;BME280;57063;51.406;-2.402;2023-05-22T06:23:26;101088.84;;;11.91;66.80
48882;BME280;57063;51.406;-2.402;2023-05-22T06:25:51;101087.59;;;11.65;66.28
48882;BME280;57063;51.406;-2.402;2023-05-22T06:28:16;101097.56;;;11.55;66.82
48882;BME280;57063;51.406;-2.402;2023-05-22T06:30:42;101098.88;;;11.46;68.09
48882;BME280;57063;51.406;-2.402;2023-05-22T06:33:07;101101.66;;;11.59;67.31
48882;BME280;57063;51.406;-2.402;2023-05-22T06:35:32;101103.25;;;11.62;67.74
48882;BME280;57063;51.406;-2.402;2023-05-22T06:37:58;101108.72;;;11.55;68.35
48882;BME280;57063;51.406;-2.402;2023-05-22T06:40:23;101112.31;;;11.53;68.83
48882;BME280;57063;51.406;-2.402;2023-05-22T06:42:48;101114.38;;;11.64;69.31
48882;BME280;57063;51.406;-2.402;2023-05-22T06:45:14;101117.31;;;11.91;69.57
48882;BME280;57063;51.406;-2.402;2023-05-22T06:47:41;101118.94;;;12.89;65.58
48882;BME280;57063;51.406;-2.402;2023-05-22T06:50:06;101123.47;;;12.37;66.18
48882;BME280;57063;51.406;-2.402;2023-05-22T06:52:32;101122.72;;;12.51;65.71
48882;BME280;57063;51.406;-2.402;2023-05-22T06:54:57;101125.72;;;12.59;66.56
48882;BME280;57063;51.406;-2.402;2023-05-22T06:57:29;101123.47;;;12.69;65.40
48882;BME280;57063;51.406;-2.402;2023-05-22T06:59:54;101133.50;;;12.75;65.41
48882;BME280;57063;51.406;-2.402;2023-05-22T07:02:19;101128.81;;;12.66;66.59
48882;BME280;57063;51.406;-2.402;2023-05-22T07:04:44;101130.47;;;12.67;66.77
48882;BME280;57063;51.406;-2.402;2023-05-22T07:07:10;101136.34;;;12.71;67.10
48882;BME280;57063;51.406;-2.402;2023-05-22T07:09:35;101136.09;;;12.59;66.88
48882;BME280;57063;51.406;-2.402;2023-05-22T07:12:01;101144.00;;;12.40;67.89
48882;BME280;57063;51.406;-2.402;2023-05-22T07:14:26;101143.03;;;12.59;67.67
48882;BME280;57063;51.406;-2.402;2023-05-22T07:16:51;101143.19;;;12.56;66.46
48882;BME280;57063;51.406;-2.402;2023-05-22T07:19:16;101145.34;;;12.48;66.70
48882;BME280;57063;51.406;-2.402;2023-05-22T07:21:43;101144.19;;;12.69;66.33
48882;BME280;57063;51.406;-2.402;2023-05-22T07:24:08;101142.16;;;12.90;66.92
48882;BME280;57063;51.406;-2.402;2023-05-22T07:26:34;101144.16;;;13.01;65.16
48882;BME280;57063;51.406;-2.402;2023-05-22T07:28:59;101151.75;;;13.04;64.19
48882;BME280;57063;51.406;-2.402;2023-05-22T07:31:25;101148.63;;;13.13;62.97
48882;BME280;57063;51.406;-2.402;2023-05-22T07:33:50;101153.81;;;13.13;62.63
48882;BME280;57063;51.406;-2.402;2023-05-22T07:36:15;101150.59;;;13.40;62.15
48882;BME280;57063;51.406;-2.402;2023-05-22T07:38:41;101158.56;;;13.37;61.13
48882;BME280;57063;51.406;-2.402;2023-05-22T07:41:07;101160.44;;;13.49;61.24
48882;BME280;57063;51.406;-2.402;2023-05-22T07:43:32;101164.22;;;13.43;60.97
48882;BME280;57063;51.406;-2.402;2023-05-22T07:45:57;101165.19;;;13.57;61.54
48882;BME280;57063;51.406;-2.402;2023-05-22T07:48:22;101164.09;;;13.61;60.63
48882;BME280;57063;51.406;-2.402;2023-05-22T07:50:48;101166.22;;;13.68;60.21
48882;BME280;57063;51.406;-2.402;2023-05-22T07:53:13;101165.50;;;13.81;60.85
48882;BME280;57063;51.406;-2.402;2023-05-22T07:55:38;101169.34;;;13.59;60.11
48882;BME280;57063;51.406;-2.402;2023-05-22T07:58:04;101169.66;;;13.69;59.39
48882;BME280;57063;51.406;-2.402;2023-05-22T08:00:29;101167.88;;;13.69;60.27
48882;BME280;57063;51.406;-2.402;2023-05-22T08:02:55;101165.00;;;13.60;59.86
48882;BME280;57063;51.406;-2.402;2023-05-22T08:05:20;101174.69;;;13.86;60.16
48882;BME280;57063;51.406;-2.402;2023-05-22T08:07:45;101171.34;;;13.99;59.68
48882;BME280;57063;51.406;-2.402;2023-05-22T08:10:15;101176.47;;;14.00;59.85
48882;BME280;57063;51.406;-2.402;2023-05-22T08:12:40;101167.06;;;14.26;58.70
48882;BME280;57063;51.406;-2.402;2023-05-22T08:15:06;101170.25;;;14.31;61.84
48882;BME280;57063;51.406;-2.402;2023-05-22T08:17:31;101170.13;;;14.19;59.69
48882;BME280;57063;51.406;-2.402;2023-05-22T08:19:57;101176.41;;;14.43;59.35
48882;BME280;57063;51.406;-2.402;2023-05-22T08:22:22;101175.41;;;14.60;58.59
48882;BME280;57063;51.406;-2.402;2023-05-22T08:24:47;101178.22;;;14.84;57.79
48882;BME280;57063;51.406;-2.402;2023-05-22T08:27:12;101182.19;;;14.90;57.85
48882;BME280;57063;51.406;-2.402;2023-05-22T08:29:38;101175.44;;;15.14;58.56
48882;BME280;57063;51.406;-2.402;2023-05-22T08:32:03;101172.09;;;15.12;58.08
48882;BME280;57063;51.406;-2.402;2023-05-22T08:34:28;101183.53;;;15.10;57.11
48882;BME280;57063;51.406;-2.402;2023-05-22T08:36:54;101182.22;;;15.17;57.88
48882;BME280;57063;51.406;-2.402;2023-05-22T08:39:19;101182.84;;;15.33;57.89
48882;BME280;57063;51.406;-2.402;2023-05-22T08:41:44;101184.84;;;15.43;56.70
48882;BME280;57063;51.406;-2.402;2023-05-22T08:44:11;101183.72;;;15.47;57.53
48882;BME280;57063;51.406;-2.402;2023-05-22T08:46:37;101176.50;;;16.03;56.35
48882;BME280;57063;51.406;-2.402;2023-05-22T08:49:05;101176.09;;;16.59;53.70
48882;BME280;57063;51.406;-2.402;2023-05-22T08:51:32;101169.50;;;17.03;51.84
48882;BME280;57063;51.406;-2.402;2023-05-22T08:54:00;101173.69;;;17.52;51.52
48882;BME280;57063;51.406;-2.402;2023-05-22T08:56:29;101158.94;;;18.20;50.11
48882;BME280;57063;51.406;-2.402;2023-05-22T08:58:55;101160.59;;;18.87;47.85
48882;BME280;57063;51.406;-2.402;2023-05-22T09:01:21;101153.69;;;19.60;46.18
48882;BME280;57063;51.406;-2.402;2023-05-22T09:03:47;101167.81;;;19.90;46.62
48882;BME280;57063;51.406;-2.402;2023-05-22T09:06:15;101161.59;;;19.91;44.72
48882;BME280;57063;51.406;-2.402;2023-05-22T09:08:40;101154.50;;;20.03;45.78
48882;BME280;57063;51.406;-2.402;2023-05-22T09:11:06;101161.50;;;20.43;45.19
48882;BME280;57063;51.406;-2.402;2023-05-22T09:13:32;101158.56;;;21.45;44.05
48882;BME280;57063;51.406;-2.402;2023-05-22T09:16:18;101170.16;;;21.42;43.41
48882;BME280;57063;51.406;-2.402;2023-05-22T09:18:42;101166.88;;;21.77;42.25
48882;BME280;57063;51.406;-2.402;2023-05-22T09:21:08;101170.34;;;22.15;41.65
48882;BME280;57063;51.406;-2.402;2023-05-22T09:23:34;101161.28;;;21.53;42.64
48882;BME280;57063;51.406;-2.402;2023-05-22T09:26:00;101169.03;;;21.35;40.86
48882;BME280;57063;51.406;-2.402;2023-05-22T09:28:26;101172.66;;;21.53;41.49
48882;BME280;57063;51.406;-2.402;2023-05-22T09:30:52;101179.88;;;22.16;40.90
48882;BME280;57063;51.406;-2.402;2023-05-22T09:33:18;101168.94;;;21.07;41.86
48882;BME280;57063;51.406;-2.402;2023-05-22T09:35:47;101169.63;;;21.19;42.16
48882;BME280;57063;51.406;-2.402;2023-05-22T09:38:12;101183.00;;;20.97;44.63
48882;BME280;57063;51.406;-2.402;2023-05-22T09:40:38;101175.00;;;21.47;41.50
48882;BME280;57063;51.406;-2.402;2023-05-22T09:43:08;101170.63;;;20.39;43.68
48882;BME280;57063;51.406;-2.402;2023-05-22T09:45:33;101168.94;;;20.38;43.35
48882;BME280;57063;51.406;-2.402;2023-05-22T09:47:59;101173.47;;;20.86;43.15
48882;BME280;57063;51.406;-2.402;2023-05-22T09:50:25;101181.19;;;21.07;43.78
48882;BME280;57063;51.406;-2.402;2023-05-22T09:52:50;101169.63;;;21.00;43.33
48882;BME280;57063;51.406;-2.402;2023-05-22T09:55:15;101172.44;;;20.07;44.69
48882;BME280;57063;51.406;-2.402;2023-05-22T09:57:43;101176.22;;;20.24;44.65
48882;BME280;57063;51.406;-2.402;2023-05-22T10:00:11;101176.47;;;20.62;44.20
48882;BME280;57063;51.406;-2.402;2023-05-22T10:02:50;101175.66;;;21.68;41.33
48882;BME280;57063;51.406;-2.402;2023-05-22T10:05:17;101168.06;;;22.02;41.29
48882;BME280;57063;51.406;-2.402;2023-05-22T10:07:47;101168.31;;;21.99;42.83
48882;BME280;57063;51.406;-2.402;2023-05-22T10:10:14;101165.22;;;22.87;41.21
48882;BME280;57063;51.406;-2.402;2023-05-22T10:12:40;101176.53;;;22.34;41.17
48882;BME280;57063;51.406;-2.402;2023-05-22T10:15:07;101173.28;;;22.40;41.59
48882;BME280;57063;51.406;-2.402;2023-05-22T10:17:34;101181.19;;;22.40;40.27
48882;BME280;57063;51.406;-2.402;2023-05-22T10:20:00;101179.69;;;22.55;39.63
48882;BME280;57063;51.406;-2.402;2023-05-22T10:22:26;101181.63;;;22.99;38.84
48882;BME280;57063;51.406;-2.402;2023-05-22T10:24:52;101185.50;;;23.04;39.36
48882;BME280;57063;51.406;-2.402;2023-05-22T10:27:18;101188.09;;;23.22;39.79
48882;BME280;57063;51.406;-2.402;2023-05-22T10:29:49;101185.69;;;23.11;39.34
48882;BME280;57063;51.406;-2.402;2023-05-22T10:34:56;101171.78;;;23.01;40.08
48882;BME280;57063;51.406;-2.402;2023-05-22T10:40:00;101176.94;;;23.46;37.84
48882;BME280;57063;51.406;-2.402;2023-05-22T10:42:29;101172.97;;;23.50;38.32
48882;BME280;57063;51.406;-2.402;2023-05-22T10:44:55;101169.75;;;23.83;37.51
48882;BME280;57063;51.406;-2.402;2023-05-22T10:47:20;101172.44;;;23.91;37.22
48882;BME280;57063;51.406;-2.402;2023-05-22T10:49:45;101165.28;;;23.31;37.11
48882;BME280;57063;51.406;-2.402;2023-05-22T10:52:11;101170.13;;;23.70;37.96
48882;BME280;57063;51.406;-2.402;2023-05-22T10:54:42;101171.25;;;24.20;37.16
48882;BME280;57063;51.406;-2.402;2023-05-22T10:57:08;101174.19;;;24.67;36.61
48882;BME280;57063;51.406;-2.402;2023-05-22T10:59:34;101176.00;;;25.73;35.33
48882;BME280;57063;51.406;-2.402;2023-05-22T11:01:59;101168.66;;;25.19;35.37
48882;BME280;57063;51.406;-2.402;2023-05-22T11:04:24;101169.66;;;25.99;37.15
48882;BME280;57063;51.406;-2.402;2023-05-22T11:07:03;101169.94;;;25.40;35.50
48882;BME280;57063;51.406;-2.402;2023-05-22T11:09:30;101168.03;;;26.29;34.79
48882;BME280;57063;51.406;-2.402;2023-05-22T11:14:36;101168.63;;;26.94;32.58
48882;BME280;57063;51.406;-2.402;2023-05-22T11:17:01;101156.13;;;27.25;32.13
48882;BME280;57063;51.406;-2.402;2023-05-22T11:19:26;101162.34;;;27.32;35.70
48882;BME280;57063;51.406;-2.402;2023-05-22T11:21:51;101149.19;;;27.24;29.47
48882;BME280;57063;51.406;-2.402;2023-05-22T11:24:17;101152.53;;;27.56;30.72
48882;BME280;57063;51.406;-2.402;2023-05-22T11:26:42;101156.63;;;27.73;28.63
48882;BME280;57063;51.406;-2.402;2023-05-22T11:29:08;101147.66;;;27.07;26.22
48882;BME280;57063;51.406;-2.402;2023-05-22T11:31:34;101149.56;;;26.98;28.21
48882;BME280;57063;51.406;-2.402;2023-05-22T11:34:00;101142.56;;;26.59;27.43
48882;BME280;57063;51.406;-2.402;2023-05-22T11:36:26;101141.34;;;27.08;29.59
48882;BME280;57063;51.406;-2.402;2023-05-22T11:38:55;101147.00;;;27.58;27.57
48882;BME280;57063;51.406;-2.402;2023-05-22T11:41:21;101135.69;;;27.64;28.74
48882;BME280;57063;51.406;-2.402;2023-05-22T11:43:46;101136.06;;;27.46;28.37
48882;BME280;57063;51.406;-2.402;2023-05-22T11:46:11;101135.53;;;26.43;29.07
48882;BME280;57063;51.406;-2.402;2023-05-22T11:48:40;101134.31;;;26.23;28.55
48882;BME280;57063;51.406;-2.402;2023-05-22T11:51:06;101145.78;;;26.15;29.06
48882;BME280;57063;51.406;-2.402;2023-05-22T11:53:32;101141.53;;;26.37;30.29
48882;BME280;57063;51.406;-2.402;2023-05-22T11:56:04;101139.09;;;26.59;30.07
48882;BME280;57063;51.406;-2.402;2023-05-22T11:58:30;101138.22;;;27.27;29.10
48882;BME280;57063;51.406;-2.402;2023-05-22T12:00:59;101137.69;;;27.09;29.87
48882;BME280;57063;51.406;-2.402;2023-05-22T12:03:24;101132.47;;;27.01;30.20
48882;BME280;57063;51.406;-2.402;2023-05-22T12:05:50;101143.81;;;26.72;30.53
48882;BME280;57063;51.406;-2.402;2023-05-22T12:08:15;101148.41;;;27.16;30.65
48882;BME280;57063;51.406;-2.402;2023-05-22T12:10:45;101141.97;;;27.33;29.96
48882;BME280;57063;51.406;-2.402;2023-05-22T12:13:10;101131.03;;;27.13;29.78
48882;BME280;57063;51.406;-2.402;2023-05-22T12:15:35;101136.09;;;26.62;30.08
48882;BME280;57063;51.406;-2.402;2023-05-22T12:18:01;101130.22;;;27.13;30.36
48882;BME280;57063;51.406;-2.402;2023-05-22T12:20:29;101133.84;;;27.35;29.33
48882;BME280;57063;51.406;-2.402;2023-05-22T12:22:55;101133.44;;;26.85;31.53
48882;BME280;57063;51.406;-2.402;2023-05-22T12:25:20;101114.56;;;26.65;31.92
48882;BME280;57063;51.406;-2.402;2023-05-22T12:27:48;101113.16;;;26.23;31.66
48882;BME280;57063;51.406;-2.402;2023-05-22T12:30:15;101109.34;;;27.32;30.65
48882;BME280;57063;51.406;-2.402;2023-05-22T12:32:45;101102.69;;;26.53;30.22
48882;BME280;57063;51.406;-2.402;2023-05-22T12:35:13;101109.91;;;26.67;31.64
48882;BME280;57063;51.406;-2.402;2023-05-22T12:37:39;101105.72;;;26.18;31.39
48882;BME280;57063;51.406;-2.402;2023-05-22T12:40:04;101101.53;;;26.55;30.47
48882;BME280;57063;51.406;-2.402;2023-05-22T12:42:29;101108.22;;;26.89;30.42
48882;BME280;57063;51.406;-2.402;2023-05-22T12:44:56;101110.91;;;27.04;29.99
48882;BME280;57063;51.406;-2.402;2023-05-22T12:47:21;101106.91;;;27.46;30.24
48882;BME280;57063;51.406;-2.402;2023-05-22T12:49:47;101109.47;;;26.32;30.37
48882;BME280;57063;51.406;-2.402;2023-05-22T12:52:12;101105.63;;;27.04;29.02
48882;BME280;57063;51.406;-2.402;2023-05-22T12:54:37;101109.19;;;26.19;29.63
48882;BME280;57063;51.406;-2.402;2023-05-22T12:57:03;101116.31;;;26.18;28.41
48882;BME280;57063;51.406;-2.402;2023-05-22T12:59:28;101111.50;;;26.22;29.77
48882;BME280;57063;51.406;-2.402;2023-05-22T13:01:55;101111.94;;;26.02;28.90
48882;BME280;57063;51.406;-2.402;2023-05-22T13:04:21;101110.00;;;25.80;31.12